This is the latest recevied weather packets stored in our database for station/object KC3ULW-13. If no packets are shown the sender has not sent any weather packets the latest 10 day(s).
| Time | Temp. | Humidity | Pressure | Rain* | Wind** | Luminosity | Snow |
|---|---|---|---|---|---|---|---|
| 1776984879 | 25.56° C | 47% | 1013.9 hPa | 0 mm | - | 52 W/m² | - |
| 1776984575 | 26.67° C | 45% | 1014.2 hPa | 0 mm | - | 59 W/m² | - |
| 1776984271 | 27.22° C | 42% | 1013.7 hPa | 0 mm | - | 114 W/m² | - |
| 1776983967 | 27.22° C | 43% | 1014.1 hPa | 0 mm | - | 147 W/m² | - |
| 1776983663 | 27.22° C | 43% | 1014.1 hPa | 0 mm | - | 161 W/m² | - |
| 1776983360 | 27.22° C | 42% | 1013.9 hPa | 0 mm | - | 191 W/m² | - |
| 1776983056 | 27.22° C | 42% | 1013.9 hPa | 0 mm | - | 180 W/m² | - |
| 1776982754 | 27.22° C | 41% | 1014 hPa | 0 mm | - | 216 W/m² | - |
| 1776982451 | 27.22° C | 42% | 1014.4 hPa | 0 mm | - | 215 W/m² | - |
| 1776982150 | 27.78° C | 42% | 1014.4 hPa | 0 mm | - | 235 W/m² | - |
| 1776981849 | 27.22° C | 42% | 1014.1 hPa | 0 mm | - | 252 W/m² | - |
| 1776981546 | 27.78° C | 41% | 1014.3 hPa | 0 mm | - | 276 W/m² | - |
| 1776981241 | 27.78° C | 40% | 1014.4 hPa | 0 mm | - | 273 W/m² | - |
| 1776980937 | 27.78° C | 41% | 1014.3 hPa | 0 mm | - | 275 W/m² | - |
| 1776980635 | 27.78° C | 41% | 1014.4 hPa | 0 mm | - | 282 W/m² | - |
| 1776980331 | 27.78° C | 40% | 1014.3 hPa | 0 mm | - | 275 W/m² | - |
| 1776980027 | 27.22° C | 42% | 1014.3 hPa | 0 mm | - | 269 W/m² | - |
| 1776979723 | 27.78° C | 41% | 1014.5 hPa | 0 mm | - | 315 W/m² | - |
| 1776979419 | 27.22° C | 42% | 1014.2 hPa | 0 mm | - | 348 W/m² | - |
| 1776979116 | 27.22° C | 41% | 1014.4 hPa | 0 mm | - | 363 W/m² | - |
| 1776978812 | 26.67° C | 43% | 1014.3 hPa | 0 mm | - | 410 W/m² | - |
| 1776978510 | 26.11° C | 44% | 1014.5 hPa | 0 mm | - | 428 W/m² | - |
| 1776978207 | 26.11° C | 45% | 1014.3 hPa | 0 mm | - | 137 W/m² | - |
| 1776977904 | 26.11° C | 44% | 1014.4 hPa | 0 mm | - | 109 W/m² | - |
| 1776977601 | 26.11° C | 44% | 1014.4 hPa | 0 mm | - | 233 W/m² | - |
* Rain latest hour (hover to see other rain measurements)
** Current wind speed in m/s (hover to see current wind gust speed)